Hauptseite
METAR-TAF:

METAR-TAF

Flughäfen :

Flughafen Kunming-Changshui

Kunming, China

Breite: 25-01N, Länge: 102-41E, Höhe: 1892 m

Beobachtung

Neuester Wetterbericht von vor 57 Minuten, um 21:00 UTC
Wind 4 kt aus Nordost
Temperatur 16°C
Luftfeuchtigkeit 100%
Luftdruck 1019 hPa
Sichtweite 10 km oder mehr
Aufgelockert bewölkt in der Höhe von 1600 ft
Durchbrochene Bewölkung in der Höhe von 4000 ft

METAR: ZPPP 162100Z 04002MPS 9999 SCT016 BKN040 16/16 Q1019 NOSIG

Zeit: 05:57 (21:57 UTC)

Prognose

Neuester Wetterbericht von vor 8 Stunden und 45 Minuten, um 13:12 UTC
Gültige Prognose vom 16 um 18 UTC bis 17 um 18 UTC
Wind 8 kt aus Ost/Südost
Sichtweite 10 km oder mehr
Aufgelockert bewölkt in der Höhe von 2300 ft
Durchbrochene Bewölkung in der Höhe von 4000 ft

TAF: ZPPP 161312Z 1618/1718 11004MPS 9999 SCT023 BKN040 TX25/1708Z TN16/1623Z

Wetterbeobachtungen und Prognosen von mehr als 4000 Flughäfen (METAR und TAF Bericht).

Die verfügbaren Stationen werden durch gelbe und rote Markierungen auf der Karte dargestellt.

Führen Sie die Maus auf sie, um den Namen der Station zu sehen.

Darauf klicken, um die Beobachtung von Wetterbeobachtungen und Prognosen zu sehen.

Um die Karte zu ändern : klicken Sie auf den grünen Tasten mit einem schwarzen Kreuz Zum Vergrößern, auf den grünen Button mit einem Gedankenstrich zu verkleinern, oder auf die grünen Pfeile für benachbarte Karten.


METAR-TAF: